Bookmark and Share
Track history (hours):
 

Stuyvesant

More information available from US FCC via Universal Licensing System and Coast Guard Vessel Documentation Center.

Last reported at 2014-Apr-21 02:33 UTC. Time now 2014-Apr-21 03:13 UTC.
Position N 40°10' W 074°00'.

Length 122 m; draft 10.2 m.

Type: Cargo ship. MMSI: 368098000.

NotesDate/timePositionNaut miles runAvg speedWind from/ knotsBaromVisibWave heightAir tempDewpointWater temp
2014-Apr-21 02:33N 40°10' W 074°00'0 0.0
2014-Apr-21 01:33N 40°10' W 074°00'4 3.6
2014-Apr-21 00:23N 40°14' W 073°57'910.2
2014-Apr-20 23:29N 40°23' W 073°55'1 1.1
2014-Apr-20 22:32N 40°24' W 073°56'0 0.3
2014-Apr-20 21:33N 40°24' W 073°56'7 6.8
2014-Apr-20 20:31N 40°16' W 073°56'7 1.2
2014-Apr-20 14:31N 40°10' W 073°59'0 0.3
2014-Apr-20 13:33N 40°10' W 073°60'2 2.1
2014-Apr-20 12:33N 40°12' W 073°58'1110.7
2014-Apr-20 11:32N 40°22' W 073°54'2 1.6
2014-Apr-20 10:32N 40°24' W 073°55'0 0.1
2014-Apr-20 09:11N 40°24' W 073°56'0 0.4
2014-Apr-20 08:26N 40°24' W 073°56'7 7.8
2014-Apr-20 07:31N 40°16' W 073°56'7 1.6
2014-Apr-20 03:09N 40°10' W 074°00'0 0.0
2014-Apr-20 02:14N 40°10' W 074°00'4 5.8
2014-Apr-20 01:33N 40°14' W 073°57'10 7.2
2014-Apr-20 00:07N 40°24' W 073°56'0 0.6
2014-Apr-19 23:32N 40°24' W 073°56'0 0.4
2014-Apr-19 22:33N 40°24' W 073°56'14 5.8
2014-Apr-19 20:06N 40°10' W 073°60'2 0.3
2014-Apr-19 13:33N 40°10' W 073°57'1 1.4
2014-Apr-19 12:34N 40°10' W 073°59'2 1.7
2014-Apr-19 11:32N 40°10' W 073°57'3 2.9
2014-Apr-19 10:33N 40°08' W 073°60'1 1.5
2014-Apr-19 09:33N 40°07' W 074°01'1 1.2
2014-Apr-19 08:32N 40°06' W 073°59'0 0.5
2014-Apr-19 07:32N 40°06' W 073°59'1 1.1
2014-Apr-19 06:33N 40°06' W 074°00'1 0.7
2014-Apr-19 05:33N 40°07' W 074°01'1 1.2
2014-Apr-19 04:27N 40°08' W 073°59'1 0.7
2014-Apr-19 03:33N 40°08' W 073°59'0 0.2
2014-Apr-19 02:33N 40°08' W 073°59'1 0.6
2014-Apr-19 01:33N 40°09' W 073°59'1 0.8
2014-Apr-19 00:33N 40°10' W 073°59'1 0.5
2014-Apr-18 23:33N 40°10' W 073°60'1 0.6
2014-Apr-18 22:23N 40°10' W 073°59'1 1.1
2014-Apr-18 21:33N 40°09' W 073°59'3 2.8
2014-Apr-18 20:25N 40°06' W 074°01'1 1.0
2014-Apr-18 19:30N 40°07' W 074°01'1 0.9
2014-Apr-18 18:24N 40°06' W 074°00'0 0.3
2014-Apr-18 17:03N 40°06' W 074°00'1 1.3
2014-Apr-18 16:25N 40°06' W 073°60'0 0.5
2014-Apr-18 15:33N 40°06' W 074°00'1 1.2
2014-Apr-18 14:33N 40°07' W 074°00'3 3.1
2014-Apr-18 13:33N 40°08' W 073°57'2 2.4
2014-Apr-18 12:31N 40°09' W 073°59'2 1.9
2014-Apr-18 11:33N 40°10' W 073°57'4 3.6
2014-Apr-18 10:32N 40°07' W 074°00'2 1.8
2014-Apr-18 09:30N 40°07' W 073°58'1 1.3
2014-Apr-18 08:28N 40°07' W 073°60'2 0.9
2014-Apr-18 06:22N 40°08' W 073°57'1 0.9
2014-Apr-18 05:10N 40°08' W 073°59'1 0.6
2014-Apr-18 04:13N 40°08' W 073°59'1 0.7
2014-Apr-18 03:31N 40°09' W 073°60'1 1.0
2014-Apr-18 02:23N 40°10' W 073°59'1 0.5
2014-Apr-18 01:17N 40°10' W 073°59'3 1.6
2014-Apr-17 23:33N 40°08' W 073°59'1 1.0
2014-Apr-17 22:34N 40°08' W 073°60'3 0.8
2014-Apr-17 19:12N 40°10' W 073°59'2 1.0
2014-Apr-17 17:26N 40°09' W 073°58'1 0.8
2014-Apr-17 16:32N 40°09' W 073°59'4 0.5
2014-Apr-17 09:18N 40°05' W 074°00'3 1.5
2014-Apr-17 07:33N 40°08' W 073°58'1 0.8
2014-Apr-17 06:33N 40°07' W 073°58'1 0.6
2014-Apr-17 05:30N 40°07' W 073°59'1 0.5
2014-Apr-17 04:32N 40°08' W 073°59'1 0.7
2014-Apr-17 03:24N 40°08' W 073°60'2 0.7
2014-Apr-17 00:31N 40°10' W 074°00'14 6.9
2014-Apr-16 22:29N 40°24' W 073°56'0 0.1
2014-Apr-16 21:04N 40°24' W 073°56'1 0.8
2014-Apr-16 20:25N 40°23' W 073°56'5 5.9
2014-Apr-16 19:33N 40°18' W 073°55'6 0.8
2014-Apr-16 12:14N 40°24' W 073°56'8 2.9
2014-Apr-16 09:33N 40°16' W 073°56'10 0.5
2014-Apr-15 15:25N 40°07' W 074°01'1 0.8
2014-Apr-15 14:26N 40°07' W 074°00'4 0.6
2014-Apr-15 07:30N 40°10' W 073°59'0 0.0
2014-Apr-15 03:29N 40°10' W 073°59'0 0.2
2014-Apr-15 01:31N 40°10' W 073°60'0 0.2
2014-Apr-15 00:32N 40°10' W 073°59'0 0.1
2014-Apr-14 22:34N 40°10' W 073°59'2 2.1
2014-Apr-14 21:34N 40°08' W 073°60'4 3.4
2014-Apr-14 20:31N 40°12' W 073°58'6 5.7
2014-Apr-14 19:32N 40°17' W 073°56'6 5.7
2014-Apr-14 18:33N 40°23' W 073°55'2 1.6
2014-Apr-14 17:33N 40°24' W 073°56'0 0.4
2014-Apr-14 16:34N 40°24' W 073°56'0 0.1
2014-Apr-14 15:32N 40°24' W 073°56'8 7.8
2014-Apr-14 14:34N 40°16' W 073°56'7 2.3
2014-Apr-14 11:34N 40°10' W 074°00'0 0.0
2014-Apr-14 10:33N 40°10' W 074°00'0 0.0
2014-Apr-14 09:32N 40°10' W 074°00'1 0.7
2014-Apr-14 08:34N 40°10' W 073°60'1110.3
2014-Apr-14 07:32N 40°20' W 073°55'4 4.2
2014-Apr-14 06:33N 40°24' W 073°56'0 0.3
2014-Apr-14 05:33N 40°24' W 073°56'14 2.0
2014-Apr-13 22:30N 40°10' W 074°00'2 1.9
2014-Apr-13 21:32N 40°10' W 073°58'2 0.6
2014-Apr-13 18:15N 40°12' W 073°58'6 3.4
2014-Apr-13 16:31N 40°17' W 073°56'6 5.4
2014-Apr-13 15:22N 40°24' W 073°56'0 0.2
2014-Apr-13 14:32N 40°24' W 073°56'0 0.4
2014-Apr-13 13:31N 40°24' W 073°56'0 0.4
2014-Apr-13 12:33N 40°24' W 073°56'4 4.4
2014-Apr-13 11:33N 40°20' W 073°55'1010.1
2014-Apr-13 10:33N 40°10' W 073°60'0 0.5
2014-Apr-13 09:32N 40°10' W 074°00'0 0.0
2014-Apr-13 08:33N 40°10' W 074°00'0 0.0
2014-Apr-13 07:33N 40°10' W 074°00'0 0.0
2014-Apr-13 06:33N 40°10' W 074°00'0 0.0
2014-Apr-13 05:33N 40°10' W 074°00'0 0.1
2014-Apr-13 04:33N 40°10' W 074°00'9 9.0
2014-Apr-13 03:33N 40°18' W 073°55'5 5.4
2014-Apr-13 02:33N 40°24' W 073°56'0 0.3
2014-Apr-13 01:33N 40°24' W 073°56'0 0.1
2014-Apr-13 00:33N 40°24' W 073°56'0 0.2
2014-Apr-12 23:33N 40°24' W 073°56'1110.5
2014-Apr-12 22:28N 40°12' W 073°58'3 2.9
2014-Apr-12 21:28N 40°10' W 074°00'0 0.0
2014-Apr-12 20:33N 40°10' W 074°00'0 0.0
2014-Apr-12 19:33N 40°10' W 074°00'0 0.0
2014-Apr-12 18:33N 40°10' W 074°00'0 0.0
2014-Apr-12 17:33N 40°10' W 074°00'0 0.4
2014-Apr-12 16:33N 40°10' W 073°60'1110.1
2014-Apr-12 15:29N 40°20' W 073°54'4 2.1
2014-Apr-12 13:33N 40°24' W 073°56'0 0.1
2014-Apr-12 12:30N 40°24' W 073°56'2 2.2
2014-Apr-12 11:32N 40°22' W 073°55'1111.5
2014-Apr-12 10:33N 40°11' W 073°59'6 0.8
2014-Apr-12 03:06N 40°17' W 073°56'7 8.9
2014-Apr-12 02:19N 40°24' W 073°56'0 0.3
2014-Apr-12 01:32N 40°24' W 073°56'0 0.1
2014-Apr-12 00:12N 40°23' W 073°56'0 0.5
2014-Apr-11 23:23N 40°24' W 073°56'0 0.4
2014-Apr-11 22:33N 40°24' W 073°56'4 3.6
2014-Apr-11 21:33N 40°20' W 073°55'1110.9
2014-Apr-11 20:33N 40°10' W 073°59'1 0.6
2014-Apr-11 19:28N 40°10' W 074°00'14 2.4
2014-Apr-11 13:32N 40°24' W 073°56'0 0.0
2014-Apr-11 12:15N 40°24' W 073°56'0 0.1
2014-Apr-11 11:31N 40°24' W 073°56'4 3.6
2014-Apr-11 10:31N 40°20' W 073°54'1110.9
2014-Apr-11 09:29N 40°10' W 073°60'0 0.4
2014-Apr-11 08:24N 40°10' W 074°00'0 0.0
2014-Apr-11 07:22N 40°10' W 074°00'0 0.0
2014-Apr-11 05:11N 40°10' W 074°00'2 3.6
2014-Apr-11 04:33N 40°12' W 073°58'1110.5
2014-Apr-11 03:33N 40°22' W 073°55'2 2.1
2014-Apr-11 02:34N 40°24' W 073°56'  

Dump ship's entire track history

sailing weather and tide predictions

Stuyvesant — WNFX — position and weather